sensor_id;sensor_type;location;lat;lon;timestamp;P1;durP1;ratioP1;P2;durP2;ratioP2
48161;SDS011;33950;48.154;16.316;2023-05-10T00:00:59;4.93;;;3.67;;
48161;SDS011;33950;48.154;16.316;2023-05-10T00:03:46;6.50;;;4.05;;
48161;SDS011;33950;48.154;16.316;2023-05-10T00:06:32;6.40;;;3.65;;
48161;SDS011;33950;48.154;16.316;2023-05-10T00:09:18;4.85;;;3.45;;
48161;SDS011;33950;48.154;16.316;2023-05-10T00:12:04;5.72;;;3.65;;
48161;SDS011;33950;48.154;16.316;2023-05-10T00:14:50;7.15;;;4.07;;
48161;SDS011;33950;48.154;16.316;2023-05-10T00:17:37;5.32;;;3.72;;
48161;SDS011;33950;48.154;16.316;2023-05-10T00:20:24;5.72;;;3.67;;
48161;SDS011;33950;48.154;16.316;2023-05-10T00:23:10;5.45;;;3.45;;
48161;SDS011;33950;48.154;16.316;2023-05-10T00:25:56;7.75;;;3.50;;
48161;SDS011;33950;48.154;16.316;2023-05-10T00:28:42;4.50;;;3.22;;
48161;SDS011;33950;48.154;16.316;2023-05-10T00:31:28;14.45;;;3.72;;
48161;SDS011;33950;48.154;16.316;2023-05-10T00:34:15;6.93;;;3.33;;
48161;SDS011;33950;48.154;16.316;2023-05-10T00:37:02;8.30;;;4.25;;
48161;SDS011;33950;48.154;16.316;2023-05-10T00:43:30;4.63;;;3.13;;
48161;SDS011;33950;48.154;16.316;2023-05-10T00:46:16;10.20;;;4.72;;
48161;SDS011;33950;48.154;16.316;2023-05-10T00:49:02;7.38;;;3.80;;
48161;SDS011;33950;48.154;16.316;2023-05-10T00:51:49;10.18;;;4.30;;
48161;SDS011;33950;48.154;16.316;2023-05-10T00:54:37;13.50;;;5.15;;
48161;SDS011;33950;48.154;16.316;2023-05-10T00:57:23;15.43;;;5.50;;
48161;SDS011;33950;48.154;16.316;2023-05-10T01:00:10;10.15;;;4.32;;
48161;SDS011;33950;48.154;16.316;2023-05-10T01:02:57;9.50;;;4.45;;
48161;SDS011;33950;48.154;16.316;2023-05-10T01:05:43;13.55;;;4.28;;
48161;SDS011;33950;48.154;16.316;2023-05-10T01:08:29;9.35;;;4.70;;
48161;SDS011;33950;48.154;16.316;2023-05-10T01:11:17;11.23;;;3.83;;
48161;SDS011;33950;48.154;16.316;2023-05-10T01:14:03;6.60;;;3.25;;
48161;SDS011;33950;48.154;16.316;2023-05-10T01:16:50;14.18;;;4.28;;
48161;SDS011;33950;48.154;16.316;2023-05-10T01:19:37;7.20;;;3.47;;
48161;SDS011;33950;48.154;16.316;2023-05-10T01:22:33;6.53;;;3.60;;
48161;SDS011;33950;48.154;16.316;2023-05-10T01:29:14;6.63;;;3.55;;
48161;SDS011;33950;48.154;16.316;2023-05-10T01:32:15;7.13;;;3.95;;
48161;SDS011;33950;48.154;16.316;2023-05-10T01:35:07;8.68;;;3.75;;
48161;SDS011;33950;48.154;16.316;2023-05-10T01:37:57;11.05;;;4.15;;
48161;SDS011;33950;48.154;16.316;2023-05-10T01:40:52;5.40;;;3.45;;
48161;SDS011;33950;48.154;16.316;2023-05-10T01:43:57;9.75;;;4.18;;
48161;SDS011;33950;48.154;16.316;2023-05-10T01:46:52;5.63;;;3.67;;
48161;SDS011;33950;48.154;16.316;2023-05-10T01:49:52;7.72;;;4.15;;
48161;SDS011;33950;48.154;16.316;2023-05-10T01:52:41;7.78;;;4.13;;
48161;SDS011;33950;48.154;16.316;2023-05-10T01:55:30;9.50;;;4.18;;
48161;SDS011;33950;48.154;16.316;2023-05-10T01:58:19;11.63;;;4.05;;
48161;SDS011;33950;48.154;16.316;2023-05-10T02:01:08;8.38;;;4.60;;
48161;SDS011;33950;48.154;16.316;2023-05-10T02:03:55;7.90;;;3.97;;
48161;SDS011;33950;48.154;16.316;2023-05-10T02:06:44;6.68;;;4.30;;
48161;SDS011;33950;48.154;16.316;2023-05-10T02:09:33;5.35;;;3.55;;
48161;SDS011;33950;48.154;16.316;2023-05-10T02:12:21;10.82;;;4.18;;
48161;SDS011;33950;48.154;16.316;2023-05-10T02:15:08;10.15;;;4.80;;
48161;SDS011;33950;48.154;16.316;2023-05-10T02:17:58;10.40;;;3.90;;
48161;SDS011;33950;48.154;16.316;2023-05-10T02:20:46;5.97;;;3.85;;
48161;SDS011;33950;48.154;16.316;2023-05-10T02:23:34;7.65;;;3.72;;
48161;SDS011;33950;48.154;16.316;2023-05-10T02:26:21;6.30;;;3.83;;
48161;SDS011;33950;48.154;16.316;2023-05-10T02:29:10;9.40;;;3.90;;
48161;SDS011;33950;48.154;16.316;2023-05-10T02:31:57;9.50;;;3.97;;
48161;SDS011;33950;48.154;16.316;2023-05-10T02:34:44;11.75;;;4.38;;
48161;SDS011;33950;48.154;16.316;2023-05-10T02:37:32;5.63;;;3.55;;
48161;SDS011;33950;48.154;16.316;2023-05-10T02:40:20;7.40;;;4.50;;
48161;SDS011;33950;48.154;16.316;2023-05-10T02:43:09;6.88;;;3.88;;
48161;SDS011;33950;48.154;16.316;2023-05-10T02:45:57;5.80;;;4.10;;
48161;SDS011;33950;48.154;16.316;2023-05-10T02:48:44;6.65;;;3.90;;
48161;SDS011;33950;48.154;16.316;2023-05-10T02:51:31;6.15;;;4.00;;
48161;SDS011;33950;48.154;16.316;2023-05-10T02:54:20;12.18;;;4.00;;
48161;SDS011;33950;48.154;16.316;2023-05-10T02:57:13;10.93;;;4.70;;
48161;SDS011;33950;48.154;16.316;2023-05-10T03:00:05;11.00;;;3.65;;
48161;SDS011;33950;48.154;16.316;2023-05-10T03:02:52;11.40;;;4.45;;
48161;SDS011;33950;48.154;16.316;2023-05-10T03:05:38;9.18;;;4.28;;
48161;SDS011;33950;48.154;16.316;2023-05-10T03:08:24;6.90;;;4.03;;
48161;SDS011;33950;48.154;16.316;2023-05-10T03:11:23;10.35;;;4.63;;
48161;SDS011;33950;48.154;16.316;2023-05-10T03:14:28;6.05;;;4.03;;
48161;SDS011;33950;48.154;16.316;2023-05-10T03:17:22;6.68;;;4.18;;
48161;SDS011;33950;48.154;16.316;2023-05-10T03:20:16;9.88;;;4.22;;
48161;SDS011;33950;48.154;16.316;2023-05-10T03:23:11;5.22;;;4.13;;
48161;SDS011;33950;48.154;16.316;2023-05-10T03:26:02;7.90;;;4.75;;
48161;SDS011;33950;48.154;16.316;2023-05-10T03:28:50;7.22;;;4.05;;
48161;SDS011;33950;48.154;16.316;2023-05-10T03:31:39;7.07;;;4.75;;
48161;SDS011;33950;48.154;16.316;2023-05-10T03:34:25;7.28;;;4.55;;
48161;SDS011;33950;48.154;16.316;2023-05-10T03:37:11;6.90;;;4.47;;
48161;SDS011;33950;48.154;16.316;2023-05-10T03:39:57;8.68;;;4.45;;
48161;SDS011;33950;48.154;16.316;2023-05-10T03:42:43;9.30;;;5.10;;
48161;SDS011;33950;48.154;16.316;2023-05-10T03:45:29;13.25;;;4.95;;
48161;SDS011;33950;48.154;16.316;2023-05-10T03:48:17;7.30;;;4.78;;
48161;SDS011;33950;48.154;16.316;2023-05-10T03:51:03;11.68;;;4.50;;
48161;SDS011;33950;48.154;16.316;2023-05-10T03:53:49;6.70;;;4.78;;
48161;SDS011;33950;48.154;16.316;2023-05-10T03:56:36;9.43;;;4.20;;
48161;SDS011;33950;48.154;16.316;2023-05-10T03:59:22;13.15;;;5.63;;
48161;SDS011;33950;48.154;16.316;2023-05-10T04:02:08;9.50;;;5.22;;
48161;SDS011;33950;48.154;16.316;2023-05-10T04:04:55;7.78;;;5.05;;
48161;SDS011;33950;48.154;16.316;2023-05-10T04:07:41;8.80;;;5.45;;
48161;SDS011;33950;48.154;16.316;2023-05-10T04:10:29;5.95;;;3.97;;
48161;SDS011;33950;48.154;16.316;2023-05-10T04:13:15;7.60;;;4.18;;
48161;SDS011;33950;48.154;16.316;2023-05-10T04:16:01;6.40;;;4.47;;
48161;SDS011;33950;48.154;16.316;2023-05-10T04:18:48;13.60;;;4.25;;
48161;SDS011;33950;48.154;16.316;2023-05-10T04:21:35;10.13;;;5.38;;
48161;SDS011;33950;48.154;16.316;2023-05-10T04:24:22;9.05;;;4.70;;
48161;SDS011;33950;48.154;16.316;2023-05-10T04:27:08;6.72;;;4.30;;
48161;SDS011;33950;48.154;16.316;2023-05-10T04:29:54;11.48;;;5.40;;
48161;SDS011;33950;48.154;16.316;2023-05-10T04:32:40;7.00;;;4.70;;
48161;SDS011;33950;48.154;16.316;2023-05-10T04:35:26;9.43;;;4.57;;
48161;SDS011;33950;48.154;16.316;2023-05-10T04:38:13;10.82;;;4.75;;
48161;SDS011;33950;48.154;16.316;2023-05-10T04:41:06;10.40;;;5.30;;
48161;SDS011;33950;48.154;16.316;2023-05-10T04:43:53;9.30;;;4.68;;
48161;SDS011;33950;48.154;16.316;2023-05-10T04:46:39;17.13;;;5.13;;
48161;SDS011;33950;48.154;16.316;2023-05-10T04:49:25;11.65;;;5.10;;
48161;SDS011;33950;48.154;16.316;2023-05-10T04:52:11;10.02;;;4.55;;
48161;SDS011;33950;48.154;16.316;2023-05-10T04:54:59;7.78;;;4.63;;
48161;SDS011;33950;48.154;16.316;2023-05-10T04:57:45;13.68;;;4.93;;
48161;SDS011;33950;48.154;16.316;2023-05-10T05:00:31;9.98;;;4.97;;
48161;SDS011;33950;48.154;16.316;2023-05-10T05:03:18;10.27;;;4.80;;
48161;SDS011;33950;48.154;16.316;2023-05-10T05:06:04;7.22;;;4.95;;
48161;SDS011;33950;48.154;16.316;2023-05-10T05:08:51;6.55;;;4.53;;
48161;SDS011;33950;48.154;16.316;2023-05-10T05:11:38;7.95;;;5.00;;
48161;SDS011;33950;48.154;16.316;2023-05-10T05:14:25;7.45;;;4.85;;
48161;SDS011;33950;48.154;16.316;2023-05-10T05:17:11;8.32;;;4.97;;
48161;SDS011;33950;48.154;16.316;2023-05-10T05:19:57;7.88;;;4.97;;
48161;SDS011;33950;48.154;16.316;2023-05-10T05:22:43;9.40;;;5.07;;
48161;SDS011;33950;48.154;16.316;2023-05-10T05:25:30;15.40;;;5.38;;
48161;SDS011;33950;48.154;16.316;2023-05-10T05:28:17;15.38;;;5.55;;
48161;SDS011;33950;48.154;16.316;2023-05-10T05:31:03;8.95;;;5.32;;
48161;SDS011;33950;48.154;16.316;2023-05-10T05:33:50;10.02;;;5.50;;
48161;SDS011;33950;48.154;16.316;2023-05-10T05:36:37;11.15;;;4.85;;
48161;SDS011;33950;48.154;16.316;2023-05-10T05:39:25;9.07;;;5.22;;
48161;SDS011;33950;48.154;16.316;2023-05-10T05:42:12;14.23;;;5.50;;
48161;SDS011;33950;48.154;16.316;2023-05-10T05:45:00;10.57;;;5.38;;
48161;SDS011;33950;48.154;16.316;2023-05-10T05:47:46;9.88;;;6.00;;
48161;SDS011;33950;48.154;16.316;2023-05-10T05:50:32;19.65;;;6.88;;
48161;SDS011;33950;48.154;16.316;2023-05-10T05:53:18;8.95;;;5.95;;
48161;SDS011;33950;48.154;16.316;2023-05-10T05:56:04;13.45;;;6.65;;
48161;SDS011;33950;48.154;16.316;2023-05-10T05:58:51;10.80;;;6.15;;
48161;SDS011;33950;48.154;16.316;2023-05-10T06:01:38;10.00;;;4.60;;
48161;SDS011;33950;48.154;16.316;2023-05-10T06:04:24;8.18;;;4.95;;
48161;SDS011;33950;48.154;16.316;2023-05-10T06:07:10;10.25;;;3.92;;
48161;SDS011;33950;48.154;16.316;2023-05-10T06:09:57;8.30;;;4.40;;
48161;SDS011;33950;48.154;16.316;2023-05-10T06:12:43;9.70;;;5.22;;
48161;SDS011;33950;48.154;16.316;2023-05-10T06:15:29;9.32;;;4.50;;
48161;SDS011;33950;48.154;16.316;2023-05-10T06:18:16;16.17;;;4.07;;
48161;SDS011;33950;48.154;16.316;2023-05-10T06:21:02;11.25;;;4.13;;
48161;SDS011;33950;48.154;16.316;2023-05-10T06:23:49;12.02;;;4.32;;
48161;SDS011;33950;48.154;16.316;2023-05-10T06:26:35;10.48;;;4.47;;
48161;SDS011;33950;48.154;16.316;2023-05-10T06:29:21;11.05;;;5.50;;
48161;SDS011;33950;48.154;16.316;2023-05-10T06:32:07;7.90;;;4.55;;
48161;SDS011;33950;48.154;16.316;2023-05-10T06:34:54;21.35;;;4.50;;
48161;SDS011;33950;48.154;16.316;2023-05-10T06:37:40;13.27;;;4.50;;
48161;SDS011;33950;48.154;16.316;2023-05-10T06:40:26;11.25;;;4.72;;
48161;SDS011;33950;48.154;16.316;2023-05-10T06:43:12;7.68;;;4.10;;
48161;SDS011;33950;48.154;16.316;2023-05-10T06:45:59;7.25;;;4.03;;
48161;SDS011;33950;48.154;16.316;2023-05-10T06:48:45;10.43;;;4.55;;
48161;SDS011;33950;48.154;16.316;2023-05-10T06:51:32;11.27;;;4.25;;
48161;SDS011;33950;48.154;16.316;2023-05-10T06:54:18;14.05;;;4.90;;
48161;SDS011;33950;48.154;16.316;2023-05-10T06:57:05;14.57;;;5.50;;
48161;SDS011;33950;48.154;16.316;2023-05-10T06:59:51;11.15;;;5.25;;
48161;SDS011;33950;48.154;16.316;2023-05-10T07:02:37;15.23;;;5.00;;
48161;SDS011;33950;48.154;16.316;2023-05-10T07:05:24;8.65;;;4.80;;
48161;SDS011;33950;48.154;16.316;2023-05-10T07:08:11;9.68;;;5.05;;
48161;SDS011;33950;48.154;16.316;2023-05-10T07:11:01;14.23;;;4.90;;
48161;SDS011;33950;48.154;16.316;2023-05-10T07:13:48;8.57;;;4.50;;
48161;SDS011;33950;48.154;16.316;2023-05-10T07:16:34;13.00;;;4.90;;
48161;SDS011;33950;48.154;16.316;2023-05-10T07:19:21;7.82;;;4.10;;
48161;SDS011;33950;48.154;16.316;2023-05-10T07:22:07;12.23;;;4.80;;
48161;SDS011;33950;48.154;16.316;2023-05-10T07:24:55;8.10;;;4.53;;
48161;SDS011;33950;48.154;16.316;2023-05-10T07:27:41;9.07;;;3.97;;
48161;SDS011;33950;48.154;16.316;2023-05-10T07:30:27;10.23;;;4.55;;
48161;SDS011;33950;48.154;16.316;2023-05-10T07:33:13;7.47;;;4.20;;
48161;SDS011;33950;48.154;16.316;2023-05-10T07:36:00;10.23;;;4.70;;
48161;SDS011;33950;48.154;16.316;2023-05-10T07:38:46;8.57;;;3.78;;
48161;SDS011;33950;48.154;16.316;2023-05-10T07:41:33;9.00;;;4.72;;
48161;SDS011;33950;48.154;16.316;2023-05-10T07:44:19;11.13;;;5.03;;
48161;SDS011;33950;48.154;16.316;2023-05-10T07:47:05;8.50;;;4.93;;
48161;SDS011;33950;48.154;16.316;2023-05-10T07:49:52;8.23;;;5.40;;
48161;SDS011;33950;48.154;16.316;2023-05-10T07:52:38;13.93;;;6.32;;
48161;SDS011;33950;48.154;16.316;2023-05-10T07:55:24;14.73;;;4.05;;
48161;SDS011;33950;48.154;16.316;2023-05-10T07:58:11;10.77;;;4.90;;
48161;SDS011;33950;48.154;16.316;2023-05-10T08:00:57;12.20;;;4.60;;
48161;SDS011;33950;48.154;16.316;2023-05-10T08:03:44;7.63;;;4.45;;
48161;SDS011;33950;48.154;16.316;2023-05-10T08:06:30;13.55;;;5.20;;
48161;SDS011;33950;48.154;16.316;2023-05-10T08:09:17;10.00;;;4.53;;
48161;SDS011;33950;48.154;16.316;2023-05-10T08:12:03;8.75;;;5.07;;
48161;SDS011;33950;48.154;16.316;2023-05-10T08:14:51;10.05;;;4.88;;
48161;SDS011;33950;48.154;16.316;2023-05-10T08:17:38;10.95;;;5.20;;
48161;SDS011;33950;48.154;16.316;2023-05-10T08:20:24;18.52;;;5.07;;
48161;SDS011;33950;48.154;16.316;2023-05-10T08:23:11;10.80;;;4.75;;
48161;SDS011;33950;48.154;16.316;2023-05-10T08:25:58;11.93;;;5.43;;
48161;SDS011;33950;48.154;16.316;2023-05-10T08:28:44;9.60;;;5.03;;
48161;SDS011;33950;48.154;16.316;2023-05-10T08:31:32;19.30;;;5.05;;
48161;SDS011;33950;48.154;16.316;2023-05-10T08:34:18;7.93;;;4.80;;
48161;SDS011;33950;48.154;16.316;2023-05-10T08:37:04;7.35;;;4.78;;
48161;SDS011;33950;48.154;16.316;2023-05-10T08:39:50;11.98;;;4.13;;
48161;SDS011;33950;48.154;16.316;2023-05-10T08:42:36;6.85;;;4.70;;
48161;SDS011;33950;48.154;16.316;2023-05-10T08:48:18;7.25;;;4.22;;
48161;SDS011;33950;48.154;16.316;2023-05-10T08:51:07;6.65;;;3.90;;
48161;SDS011;33950;48.154;16.316;2023-05-10T08:53:54;10.75;;;4.28;;
48161;SDS011;33950;48.154;16.316;2023-05-10T08:56:40;9.48;;;3.45;;
48161;SDS011;33950;48.154;16.316;2023-05-10T08:59:27;6.10;;;3.97;;
48161;SDS011;33950;48.154;16.316;2023-05-10T09:02:16;8.20;;;3.88;;
48161;SDS011;33950;48.154;16.316;2023-05-10T09:05:05;14.48;;;3.90;;
48161;SDS011;33950;48.154;16.316;2023-05-10T09:07:53;6.50;;;3.80;;
48161;SDS011;33950;48.154;16.316;2023-05-10T09:10:39;10.50;;;4.90;;
48161;SDS011;33950;48.154;16.316;2023-05-10T09:13:28;8.95;;;3.50;;
48161;SDS011;33950;48.154;16.316;2023-05-10T09:16:15;5.80;;;3.45;;
48161;SDS011;33950;48.154;16.316;2023-05-10T09:19:02;12.98;;;3.50;;
48161;SDS011;33950;48.154;16.316;2023-05-10T09:21:50;11.57;;;3.28;;
48161;SDS011;33950;48.154;16.316;2023-05-10T09:24:36;13.88;;;3.00;;
48161;SDS011;33950;48.154;16.316;2023-05-10T09:27:27;8.57;;;2.90;;
48161;SDS011;33950;48.154;16.316;2023-05-10T09:30:17;6.00;;;3.10;;
48161;SDS011;33950;48.154;16.316;2023-05-10T09:33:09;6.22;;;2.50;;
48161;SDS011;33950;48.154;16.316;2023-05-10T09:35:55;7.50;;;2.80;;
48161;SDS011;33950;48.154;16.316;2023-05-10T09:38:52;8.60;;;2.65;;
48161;SDS011;33950;48.154;16.316;2023-05-10T09:41:39;5.30;;;2.17;;
48161;SDS011;33950;48.154;16.316;2023-05-10T09:44:28;2.30;;;1.73;;
48161;SDS011;33950;48.154;16.316;2023-05-10T09:47:16;7.15;;;2.65;;
48161;SDS011;33950;48.154;16.316;2023-05-10T09:50:04;9.90;;;2.08;;
48161;SDS011;33950;48.154;16.316;2023-05-10T09:52:52;3.08;;;2.30;;
48161;SDS011;33950;48.154;16.316;2023-05-10T09:55:41;6.82;;;1.92;;
48161;SDS011;33950;48.154;16.316;2023-05-10T09:58:32;1.58;;;1.38;;
48161;SDS011;33950;48.154;16.316;2023-05-10T10:01:25;5.13;;;1.70;;
48161;SDS011;33950;48.154;16.316;2023-05-10T10:04:11;16.17;;;1.55;;
48161;SDS011;33950;48.154;16.316;2023-05-10T10:06:58;2.30;;;1.30;;
48161;SDS011;33950;48.154;16.316;2023-05-10T10:09:46;1.95;;;1.42;;
48161;SDS011;33950;48.154;16.316;2023-05-10T10:12:33;7.25;;;1.90;;
48161;SDS011;33950;48.154;16.316;2023-05-10T10:15:21;6.00;;;1.73;;
48161;SDS011;33950;48.154;16.316;2023-05-10T10:18:07;5.10;;;1.65;;
48161;SDS011;33950;48.154;16.316;2023-05-10T10:20:58;2.67;;;1.52;;
48161;SDS011;33950;48.154;16.316;2023-05-10T10:23:45;7.43;;;1.52;;
48161;SDS011;33950;48.154;16.316;2023-05-10T10:26:32;5.53;;;1.55;;
48161;SDS011;33950;48.154;16.316;2023-05-10T10:29:23;6.35;;;1.45;;
48161;SDS011;33950;48.154;16.316;2023-05-10T10:32:19;32.40;;;1.85;;
48161;SDS011;33950;48.154;16.316;2023-05-10T10:35:11;1.15;;;1.05;;
48161;SDS011;33950;48.154;16.316;2023-05-10T10:37:57;9.02;;;1.80;;
48161;SDS011;33950;48.154;16.316;2023-05-10T10:40:43;6.20;;;1.67;;
48161;SDS011;33950;48.154;16.316;2023-05-10T10:43:29;2.65;;;1.33;;
48161;SDS011;33950;48.154;16.316;2023-05-10T10:46:17;1.95;;;1.30;;
48161;SDS011;33950;48.154;16.316;2023-05-10T10:49:08;5.05;;;1.42;;
48161;SDS011;33950;48.154;16.316;2023-05-10T10:55:06;2.33;;;1.23;;
48161;SDS011;33950;48.154;16.316;2023-05-10T10:57:55;4.90;;;1.33;;
48161;SDS011;33950;48.154;16.316;2023-05-10T11:00:49;2.13;;;1.08;;
48161;SDS011;33950;48.154;16.316;2023-05-10T11:03:37;3.50;;;1.50;;
48161;SDS011;33950;48.154;16.316;2023-05-10T11:06:28;5.35;;;1.45;;
48161;SDS011;33950;48.154;16.316;2023-05-10T11:09:15;5.18;;;1.15;;
48161;SDS011;33950;48.154;16.316;2023-05-10T11:12:07;3.15;;;1.70;;
48161;SDS011;33950;48.154;16.316;2023-05-10T11:14:56;4.20;;;2.33;;
48161;SDS011;33950;48.154;16.316;2023-05-10T11:17:42;6.57;;;3.55;;
48161;SDS011;33950;48.154;16.316;2023-05-10T11:20:33;6.53;;;1.90;;
48161;SDS011;33950;48.154;16.316;2023-05-10T11:23:28;4.35;;;1.77;;
48161;SDS011;33950;48.154;16.316;2023-05-10T11:26:15;3.75;;;1.77;;
48161;SDS011;33950;48.154;16.316;2023-05-10T11:29:02;5.63;;;1.38;;
48161;SDS011;33950;48.154;16.316;2023-05-10T11:31:50;5.53;;;1.63;;
48161;SDS011;33950;48.154;16.316;2023-05-10T11:34:36;10.80;;;2.00;;
48161;SDS011;33950;48.154;16.316;2023-05-10T11:37:27;6.07;;;1.60;;
48161;SDS011;33950;48.154;16.316;2023-05-10T11:40:17;7.13;;;1.58;;
48161;SDS011;33950;48.154;16.316;2023-05-10T11:43:04;3.00;;;1.67;;
48161;SDS011;33950;48.154;16.316;2023-05-10T11:45:51;3.15;;;1.40;;
48161;SDS011;33950;48.154;16.316;2023-05-10T11:48:38;4.45;;;1.42;;
48161;SDS011;33950;48.154;16.316;2023-05-10T11:51:25;2.75;;;1.20;;
48161;SDS011;33950;48.154;16.316;2023-05-10T11:54:12;1.65;;;1.13;;
48161;SDS011;33950;48.154;16.316;2023-05-10T11:56:58;2.10;;;1.50;;
48161;SDS011;33950;48.154;16.316;2023-05-10T11:59:45;3.85;;;1.23;;
48161;SDS011;33950;48.154;16.316;2023-05-10T12:02:31;4.53;;;1.33;;
48161;SDS011;33950;48.154;16.316;2023-05-10T12:05:17;5.18;;;1.23;;
48161;SDS011;33950;48.154;16.316;2023-05-10T12:08:10;5.45;;;1.90;;
48161;SDS011;33950;48.154;16.316;2023-05-10T12:11:05;5.75;;;1.95;;
48161;SDS011;33950;48.154;16.316;2023-05-10T12:13:53;2.47;;;1.20;;
48161;SDS011;33950;48.154;16.316;2023-05-10T12:16:39;1.80;;;1.45;;
48161;SDS011;33950;48.154;16.316;2023-05-10T12:19:25;5.65;;;1.63;;
48161;SDS011;33950;48.154;16.316;2023-05-10T12:22:12;8.00;;;1.42;;
48161;SDS011;33950;48.154;16.316;2023-05-10T12:24:58;9.43;;;1.58;;
48161;SDS011;33950;48.154;16.316;2023-05-10T12:27:49;6.30;;;1.27;;
48161;SDS011;33950;48.154;16.316;2023-05-10T12:30:36;1.75;;;1.20;;
48161;SDS011;33950;48.154;16.316;2023-05-10T12:33:23;7.82;;;1.23;;
48161;SDS011;33950;48.154;16.316;2023-05-10T12:36:10;12.05;;;1.35;;
48161;SDS011;33950;48.154;16.316;2023-05-10T12:39:02;4.10;;;1.45;;
48161;SDS011;33950;48.154;16.316;2023-05-10T12:41:48;3.15;;;0.93;;
48161;SDS011;33950;48.154;16.316;2023-05-10T12:44:36;3.00;;;0.80;;
48161;SDS011;33950;48.154;16.316;2023-05-10T12:47:22;5.22;;;1.48;;
48161;SDS011;33950;48.154;16.316;2023-05-10T12:50:08;1.60;;;1.33;;
48161;SDS011;33950;48.154;16.316;2023-05-10T12:52:55;3.50;;;1.42;;
48161;SDS011;33950;48.154;16.316;2023-05-10T12:55:41;1.60;;;1.23;;
48161;SDS011;33950;48.154;16.316;2023-05-10T12:58:27;4.43;;;1.38;;
48161;SDS011;33950;48.154;16.316;2023-05-10T13:01:15;5.05;;;1.83;;
48161;SDS011;33950;48.154;16.316;2023-05-10T13:04:01;1.67;;;1.25;;
48161;SDS011;33950;48.154;16.316;2023-05-10T13:06:47;14.40;;;1.48;;
48161;SDS011;33950;48.154;16.316;2023-05-10T13:09:33;2.45;;;1.40;;
48161;SDS011;33950;48.154;16.316;2023-05-10T13:12:20;1.48;;;1.30;;
48161;SDS011;33950;48.154;16.316;2023-05-10T13:15:07;2.03;;;1.50;;
48161;SDS011;33950;48.154;16.316;2023-05-10T13:17:55;8.75;;;1.65;;
48161;SDS011;33950;48.154;16.316;2023-05-10T13:20:41;6.85;;;1.98;;
48161;SDS011;33950;48.154;16.316;2023-05-10T13:23:28;2.70;;;1.63;;
48161;SDS011;33950;48.154;16.316;2023-05-10T13:26:14;8.48;;;1.45;;
48161;SDS011;33950;48.154;16.316;2023-05-10T13:29:00;1.80;;;1.58;;
48161;SDS011;33950;48.154;16.316;2023-05-10T13:31:49;7.07;;;1.63;;
48161;SDS011;33950;48.154;16.316;2023-05-10T13:34:37;3.35;;;1.23;;
48161;SDS011;33950;48.154;16.316;2023-05-10T13:37:23;5.07;;;1.42;;
48161;SDS011;33950;48.154;16.316;2023-05-10T13:40:10;5.35;;;1.38;;
48161;SDS011;33950;48.154;16.316;2023-05-10T13:42:56;1.70;;;1.60;;
48161;SDS011;33950;48.154;16.316;2023-05-10T13:45:42;4.88;;;1.88;;
48161;SDS011;33950;48.154;16.316;2023-05-10T13:48:29;2.58;;;1.92;;
48161;SDS011;33950;48.154;16.316;2023-05-10T13:51:16;2.35;;;1.67;;
48161;SDS011;33950;48.154;16.316;2023-05-10T13:54:02;3.20;;;1.90;;
48161;SDS011;33950;48.154;16.316;2023-05-10T13:56:49;4.28;;;1.75;;
48161;SDS011;33950;48.154;16.316;2023-05-10T13:59:35;5.55;;;1.45;;
48161;SDS011;33950;48.154;16.316;2023-05-10T14:02:21;2.20;;;1.40;;
48161;SDS011;33950;48.154;16.316;2023-05-10T14:05:07;6.40;;;1.77;;
48161;SDS011;33950;48.154;16.316;2023-05-10T14:07:55;8.20;;;1.67;;
48161;SDS011;33950;48.154;16.316;2023-05-10T14:10:41;1.83;;;1.23;;
48161;SDS011;33950;48.154;16.316;2023-05-10T14:13:27;2.92;;;1.30;;
48161;SDS011;33950;48.154;16.316;2023-05-10T14:16:14;3.17;;;1.95;;
48161;SDS011;33950;48.154;16.316;2023-05-10T14:19:00;3.05;;;1.67;;
48161;SDS011;33950;48.154;16.316;2023-05-10T14:21:47;2.70;;;1.70;;
48161;SDS011;33950;48.154;16.316;2023-05-10T14:24:34;3.08;;;1.70;;
48161;SDS011;33950;48.154;16.316;2023-05-10T14:27:20;3.97;;;1.63;;
48161;SDS011;33950;48.154;16.316;2023-05-10T14:30:07;4.60;;;1.35;;
48161;SDS011;33950;48.154;16.316;2023-05-10T14:32:53;5.13;;;1.85;;
48161;SDS011;33950;48.154;16.316;2023-05-10T14:35:39;5.55;;;1.80;;
48161;SDS011;33950;48.154;16.316;2023-05-10T14:38:26;3.55;;;1.60;;
48161;SDS011;33950;48.154;16.316;2023-05-10T14:41:13;9.45;;;1.60;;
48161;SDS011;33950;48.154;16.316;2023-05-10T14:44:01;4.93;;;1.77;;
48161;SDS011;33950;48.154;16.316;2023-05-10T14:46:48;4.25;;;1.42;;
48161;SDS011;33950;48.154;16.316;2023-05-10T14:49:35;5.10;;;1.50;;
48161;SDS011;33950;48.154;16.316;2023-05-10T14:52:21;8.88;;;1.60;;
48161;SDS011;33950;48.154;16.316;2023-05-10T14:55:07;4.50;;;1.42;;
48161;SDS011;33950;48.154;16.316;2023-05-10T14:57:55;5.47;;;1.63;;
48161;SDS011;33950;48.154;16.316;2023-05-10T15:00:41;1.83;;;1.38;;
48161;SDS011;33950;48.154;16.316;2023-05-10T15:03:28;3.30;;;1.88;;
48161;SDS011;33950;48.154;16.316;2023-05-10T15:06:14;2.72;;;1.30;;
48161;SDS011;33950;48.154;16.316;2023-05-10T15:09:01;3.15;;;1.65;;
48161;SDS011;33950;48.154;16.316;2023-05-10T15:11:48;2.45;;;1.67;;
48161;SDS011;33950;48.154;16.316;2023-05-10T15:14:36;3.47;;;1.45;;
48161;SDS011;33950;48.154;16.316;2023-05-10T15:17:22;5.53;;;1.30;;
48161;SDS011;33950;48.154;16.316;2023-05-10T15:20:08;3.17;;;1.20;;
48161;SDS011;33950;48.154;16.316;2023-05-10T15:22:55;5.28;;;1.08;;
48161;SDS011;33950;48.154;16.316;2023-05-10T15:25:41;3.28;;;1.38;;
48161;SDS011;33950;48.154;16.316;2023-05-10T15:28:27;6.47;;;1.20;;
48161;SDS011;33950;48.154;16.316;2023-05-10T15:31:15;1.98;;;1.02;;
48161;SDS011;33950;48.154;16.316;2023-05-10T15:34:01;4.68;;;1.13;;
48161;SDS011;33950;48.154;16.316;2023-05-10T15:36:47;3.17;;;1.40;;
48161;SDS011;33950;48.154;16.316;2023-05-10T15:39:34;4.45;;;1.50;;
48161;SDS011;33950;48.154;16.316;2023-05-10T15:42:20;5.68;;;1.50;;
48161;SDS011;33950;48.154;16.316;2023-05-10T15:45:06;3.97;;;1.35;;
48161;SDS011;33950;48.154;16.316;2023-05-10T15:47:55;4.28;;;1.50;;
48161;SDS011;33950;48.154;16.316;2023-05-10T15:50:41;6.15;;;1.33;;
48161;SDS011;33950;48.154;16.316;2023-05-10T15:53:27;4.78;;;0.98;;
48161;SDS011;33950;48.154;16.316;2023-05-10T15:56:13;10.10;;;1.60;;
48161;SDS011;33950;48.154;16.316;2023-05-10T15:58:59;4.82;;;1.77;;
48161;SDS011;33950;48.154;16.316;2023-05-10T16:01:46;1.60;;;1.25;;
48161;SDS011;33950;48.154;16.316;2023-05-10T16:04:34;1.83;;;1.20;;
48161;SDS011;33950;48.154;16.316;2023-05-10T16:07:20;6.07;;;1.58;;
48161;SDS011;33950;48.154;16.316;2023-05-10T16:10:07;6.43;;;1.83;;
48161;SDS011;33950;48.154;16.316;2023-05-10T16:12:54;7.10;;;1.55;;
48161;SDS011;33950;48.154;16.316;2023-05-10T16:15:40;6.20;;;1.30;;
48161;SDS011;33950;48.154;16.316;2023-05-10T16:18:27;7.20;;;1.50;;
48161;SDS011;33950;48.154;16.316;2023-05-10T16:21:14;3.88;;;1.40;;
48161;SDS011;33950;48.154;16.316;2023-05-10T16:24:01;5.00;;;1.42;;
48161;SDS011;33950;48.154;16.316;2023-05-10T16:26:47;6.78;;;1.40;;
48161;SDS011;33950;48.154;16.316;2023-05-10T16:29:34;2.63;;;1.70;;
48161;SDS011;33950;48.154;16.316;2023-05-10T16:32:20;3.38;;;1.70;;
48161;SDS011;33950;48.154;16.316;2023-05-10T16:35:07;4.20;;;1.67;;
48161;SDS011;33950;48.154;16.316;2023-05-10T16:37:55;8.80;;;1.67;;
48161;SDS011;33950;48.154;16.316;2023-05-10T16:40:41;3.22;;;1.30;;
48161;SDS011;33950;48.154;16.316;2023-05-10T16:43:27;13.70;;;1.63;;